Главная страница
METAR-TAF:

METAR-TAF

Аэропорты :

Фунафути, Тувалу

широта: 08-31S, долгота: 179-13E, высота над уровнем моря: 1 м

Текущие метеонаблюдения

Эта сводка был подготовлена 38 минут назад, в 15:00 UTC
Ветер 2 Узел переменных направлений
Температура 29°C
Влажность 79%
Давление 1008 hPa
Видимость 10 км и более
небольшая облачность на высоте 2000 фута

METAR: NGFU 241500Z VRB02KT 9999 FEW020 29/25 Q1008

Время: 03:38 (15:38 UTC)

Прогноз

Эта сводка был подготовлена 4 часа и 9 минут назад, в 11:29 UTC
Прогноз действительный с 24-го 12 UTC до 25-го 12 UTC
Ветер 3 Узел переменных направлений
Видимость 10 км и более
Отдельные облака на высоте 2000 фута
Вероятность 30% :
временами
С 24-го 18 UTC до 24-го 24 UTC
Видимость: 5000 м
небольшая облачность на высоте 1800 фута, Кучево-дождевые.
гроза, дождь

TAF: NGFU 241129Z 2412/2512 VRB03KT 9999 SCT020 PROB30 TEMPO 2418/2424 5000 TSRA FEW018CB

Метеонаблюдения и прогнозы для более 4000 аэропортов (сводки METAR и TAF).

Имеющиеся станции представлены на карте желтыми и красными точками.

Чтобы увидеть название станции, наведите на нее мышь.

Затем щелкните, чтобы увидеть метеонаблюдения и метеопрогнозы.

Управление картой: чтобы увеличить масштаб, щелкните зеленые кнопки с черным крестиком; чтобы уменьшить масштаб, щелкните зеленую кнопку с тире; для просмотра соседних карт щелкайте зеленые стрелки.


METAR-TAF: